Wurtsboro, New York
Current Conditions -  °F | °C
As of 9:54 PM on Sunday 23 Nov 2014 (Local Time) from KMGJ Reporting Station
Clear Clear  
Wind Chill: 37°   Ceiling: Unl
Heat Index: 37°   Visibility: 10mi
Dew Point: 29°   Wind: 3mph
Humidity: 73%   Direction: 20°NNE
Pressure: 30.04"   Gusts: NA
Location:  41.58°N, 74.49°W
Report Text: KMGJ 240254Z AUTO 02003KT 10SM CLR 03/M02 A3004 RMK AO2 SLP176 T00281017 58015 TSNO
Loading
Personal Weather Stations






























Interactive Weather Map New forecast layout! Learn more

10-Day Weather Forecast

Advertisements
Track Severe Weather on mobile